createdAt,value
2022-10-09T04:02:03.540Z,99524.50
2022-10-09T04:06:16.132Z,99531.66
2022-10-09T04:10:27.667Z,99523.59
2022-10-09T04:14:40.434Z,99531.88
2022-10-09T04:18:52.119Z,99522.56
2022-10-09T04:23:03.625Z,99517.59
2022-10-09T04:27:15.411Z,99520.53
2022-10-09T04:31:26.988Z,99514.63
2022-10-09T04:35:42.472Z,99509.50
2022-10-09T04:39:54.015Z,99514.94
2022-10-09T04:44:05.679Z,99512.34
2022-10-09T04:48:17.195Z,99511.63
2022-10-09T04:52:29.071Z,99508.94
2022-10-09T04:56:40.640Z,99514.72
2022-10-09T05:00:52.197Z,99509.53
2022-10-09T05:05:04.049Z,99513.31
2022-10-09T05:09:15.599Z,99506.38
2022-10-09T05:13:30.441Z,99512.50
2022-10-09T05:17:41.974Z,99512.13
2022-10-09T05:21:54.939Z,99515.19
2022-10-09T05:26:09.344Z,99519.56
2022-10-09T05:30:20.816Z,99514.75
2022-10-09T05:34:34.214Z,99516.63
2022-10-09T05:38:46.184Z,99521.81
2022-10-09T05:42:57.690Z,99528.75
2022-10-09T05:47:09.139Z,99529.47
2022-10-09T05:51:29.521Z,99521.56
2022-10-09T05:55:41.192Z,99524.63
2022-10-09T05:59:52.657Z,99522.88
2022-10-09T06:04:05.083Z,99523.72
2022-10-09T06:08:16.547Z,99523.47
2022-10-09T06:12:27.998Z,99523.22
2022-10-09T06:16:42.203Z,99515.13
2022-10-09T06:20:59.391Z,99521.94
2022-10-09T06:25:11.253Z,99511.91
2022-10-09T06:29:22.838Z,99522.88
2022-10-09T06:33:37.027Z,99517.19
2022-10-09T06:37:48.455Z,99513.44
2022-10-09T06:41:59.934Z,99514.22
2022-10-09T06:46:35.318Z,99521.53
2022-10-09T06:50:46.879Z,99516.97
2022-10-09T06:54:58.356Z,99519.66
2022-10-09T06:59:10.991Z,99513.97
2022-10-09T07:03:22.502Z,99522.00
2022-10-09T07:07:38.805Z,99524.53
2022-10-09T07:11:50.287Z,99527.00
2022-10-09T07:16:04.807Z,99517.88
2022-10-09T07:20:16.734Z,99523.41
2022-10-09T07:24:28.280Z,99523.56
2022-10-09T07:28:41.267Z,99516.16
2022-10-09T07:32:52.888Z,99518.66
2022-10-09T07:37:04.406Z,99514.38
2022-10-09T07:41:15.972Z,99513.41
2022-10-09T07:45:27.698Z,99501.09
2022-10-09T07:49:39.223Z,99501.81
2022-10-09T07:53:51.618Z,99505.66
2022-10-09T07:58:03.281Z,99502.25
2022-10-09T08:02:14.842Z,99498.56
2022-10-09T08:06:26.986Z,99507.66
2022-10-09T08:10:38.508Z,99501.06
2022-10-09T08:14:50.027Z,99499.69
2022-10-09T08:19:02.535Z,99486.03
2022-10-09T08:23:14.128Z,99477.25
2022-10-09T08:27:25.705Z,99482.47
2022-10-09T08:31:37.496Z,99475.72
2022-10-09T08:35:49.939Z,99470.06
2022-10-09T08:40:01.832Z,99470.97
2022-10-09T08:44:25.528Z,99467.06
2022-10-09T08:48:43.827Z,99462.72
2022-10-09T08:53:14.745Z,99457.72
2022-10-09T08:57:32.574Z,99457.75
2022-10-09T09:01:49.746Z,99448.00
2022-10-09T09:06:09.557Z,99442.94
2022-10-09T09:10:38.697Z,99442.44
2022-10-09T09:15:07.786Z,99438.06
2022-10-09T09:19:48.926Z,99425.16
2022-10-09T09:24:06.910Z,99425.81
2022-10-09T09:28:25.186Z,99417.06
2022-10-09T09:32:39.723Z,99407.66
2022-10-09T09:36:57.240Z,99406.91
2022-10-09T09:41:09.317Z,99400.72
2022-10-09T09:45:25.465Z,99390.91
2022-10-09T09:49:40.398Z,99382.09
2022-10-09T09:54:14.576Z,99379.78
2022-10-09T09:58:47.910Z,99378.41
2022-10-09T10:03:16.796Z,99372.44
2022-10-09T10:07:34.643Z,99352.53
2022-10-09T10:11:57.378Z,99352.59
2022-10-09T10:16:09.366Z,99346.75
2022-10-09T10:20:21.076Z,99339.47
2022-10-09T10:24:41.910Z,99338.25
2022-10-09T10:29:02.000Z,99331.53
2022-10-09T10:33:22.159Z,99320.66
2022-10-09T10:37:33.693Z,99323.50
2022-10-09T10:41:51.056Z,99312.19
2022-10-09T10:46:28.211Z,99311.25
2022-10-09T10:51:11.363Z,99299.06
2022-10-09T10:56:04.184Z,99291.03
2022-10-09T11:00:17.439Z,99285.53
2022-10-09T11:04:35.041Z,99273.09
2022-10-09T11:09:05.868Z,99283.13
2022-10-09T11:13:34.898Z,99281.63
2022-10-09T11:18:07.998Z,99275.63
2022-10-09T11:22:22.321Z,99267.13
2022-10-09T11:26:45.971Z,99252.41
2022-10-09T11:31:02.666Z,99256.81
2022-10-09T11:35:20.690Z,99238.34
2022-10-09T11:39:32.844Z,99239.16
2022-10-09T11:43:58.049Z,99233.63
2022-10-09T11:48:18.322Z,99231.59
2022-10-09T11:52:41.928Z,99226.00
2022-10-09T11:57:06.389Z,99226.09
2022-10-09T12:01:29.488Z,99218.19
2022-10-09T12:05:44.170Z,99203.66
2022-10-09T12:10:09.087Z,99202.56
2022-10-09T12:14:25.840Z,99204.53
2022-10-09T12:18:46.809Z,99196.00
2022-10-09T12:23:25.339Z,99189.56
2022-10-09T12:27:39.237Z,99179.66
2022-10-09T12:31:53.901Z,99173.38
2022-10-09T12:36:22.417Z,99170.94
2022-10-09T12:40:33.923Z,99154.97
2022-10-09T12:44:46.690Z,99145.00
2022-10-09T12:48:59.621Z,99142.38
2022-10-09T12:53:26.673Z,99132.03
2022-10-09T12:57:38.971Z,99138.16
2022-10-09T13:01:55.919Z,99134.53
2022-10-09T13:06:15.737Z,99117.44
2022-10-09T13:10:27.961Z,99106.91
2022-10-09T13:15:00.251Z,99111.38
2022-10-09T13:19:32.929Z,99097.78
2022-10-09T13:23:44.447Z,99100.63
2022-10-09T13:27:56.914Z,99091.44
2022-10-09T13:32:12.329Z,99095.53
2022-10-09T13:36:23.799Z,99089.44
2022-10-09T13:40:35.305Z,99076.66
2022-10-09T13:44:46.794Z,99076.09
2022-10-09T13:48:58.313Z,99063.69
2022-10-09T13:53:10.312Z,99052.94
2022-10-09T13:57:21.840Z,99062.66
2022-10-09T14:01:33.423Z,99049.47
2022-10-09T14:05:45.212Z,99050.09
2022-10-09T14:09:56.719Z,99041.97
2022-10-09T14:14:08.285Z,99043.19
2022-10-09T14:18:19.834Z,99028.56
2022-10-09T14:22:31.370Z,99035.66
2022-10-09T14:26:44.276Z,99024.09
2022-10-09T14:30:58.111Z,99026.16
2022-10-09T14:35:09.862Z,99023.25
2022-10-09T14:39:21.343Z,99011.13
2022-10-09T14:43:32.924Z,99014.16
2022-10-09T14:47:44.425Z,99011.50
2022-10-09T14:51:55.955Z,99009.44
2022-10-09T14:56:11.934Z,98994.66
2022-10-09T15:00:23.506Z,98989.97
2022-10-09T15:04:35.106Z,98993.00
2022-10-09T15:08:46.647Z,98988.34
2022-10-09T15:12:58.155Z,98982.28
2022-10-09T15:17:09.699Z,98975.97
2022-10-09T15:21:28.273Z,98970.06
2022-10-09T15:25:39.780Z,98967.66
2022-10-09T15:29:51.361Z,98962.34
2022-10-09T15:34:03.549Z,98960.94
2022-10-09T15:38:16.906Z,98955.06
2022-10-09T15:42:28.403Z,98948.53
2022-10-09T15:46:39.906Z,98947.53
2022-10-09T15:50:53.581Z,98952.38
2022-10-09T15:55:05.491Z,98953.78
2022-10-09T15:59:17.049Z,98939.16
2022-10-09T16:03:29.005Z,98936.50
2022-10-09T16:07:41.294Z,98930.56
2022-10-09T16:11:52.897Z,98926.88
2022-10-09T16:16:09.227Z,98925.22
2022-10-09T16:20:20.720Z,98924.75
2022-10-09T16:24:32.606Z,98923.47
2022-10-09T16:28:45.403Z,98934.91
2022-10-09T16:32:56.983Z,98925.91
2022-10-09T16:37:08.498Z,98926.81
2022-10-09T16:41:21.548Z,98939.31
2022-10-09T16:45:33.111Z,98931.66
2022-10-09T16:49:44.622Z,98931.09
2022-10-09T16:53:58.828Z,98934.50
2022-10-09T16:58:10.344Z,98933.72
2022-10-09T17:02:21.910Z,98936.53
2022-10-09T17:06:33.511Z,98933.50
2022-10-09T17:10:45.239Z,98942.09
2022-10-09T17:14:56.993Z,98945.50
2022-10-09T17:19:08.731Z,98945.31
2022-10-09T17:23:20.268Z,98946.31
2022-10-09T17:27:31.804Z,98938.38
2022-10-09T17:31:43.392Z,98944.22
2022-10-09T17:35:55.002Z,98949.66
2022-10-09T17:40:06.828Z,98946.09
2022-10-09T17:44:18.316Z,98933.75
2022-10-09T17:48:32.982Z,98949.81
2022-10-09T17:52:44.539Z,98949.53
2022-10-09T17:56:56.078Z,98947.47
2022-10-09T18:01:09.023Z,98947.00
2022-10-09T18:05:20.579Z,98944.94
2022-10-09T18:09:32.764Z,98952.06
2022-10-09T18:14:28.293Z,98949.66
2022-10-09T18:18:51.186Z,98951.44
2022-10-09T18:23:07.261Z,98940.59
2022-10-09T18:27:23.957Z,98939.06
2022-10-09T18:31:35.968Z,98939.56
2022-10-09T18:35:57.243Z,98923.16
2022-10-09T18:40:09.117Z,98924.97
2022-10-09T18:44:44.402Z,98919.00
2022-10-09T18:53:58.178Z,98911.84
2022-10-09T18:58:58.014Z,98908.19
2022-10-09T19:03:17.560Z,98900.91
2022-10-09T19:07:29.390Z,98902.13
2022-10-09T19:12:08.703Z,98898.19
2022-10-09T19:17:00.748Z,98896.34
2022-10-09T19:21:34.469Z,98905.50
2022-10-09T19:27:06.641Z,98902.25
2022-10-09T19:31:51.026Z,98903.66
2022-10-09T19:41:54.055Z,98904.38
2022-10-09T19:46:52.231Z,98896.34
2022-10-09T19:51:22.616Z,98899.63
2022-10-09T20:00:27.058Z,98889.31
2022-10-09T20:04:38.913Z,98890.72
2022-10-09T20:08:50.601Z,98887.50
2022-10-09T20:13:02.316Z,98889.13
2022-10-09T20:17:13.806Z,98886.97
2022-10-09T20:21:25.847Z,98881.94
2022-10-09T20:25:37.379Z,98889.44
2022-10-09T20:29:48.909Z,98889.81
2022-10-09T20:34:00.385Z,98887.34
2022-10-09T20:38:11.950Z,98877.19
2022-10-09T20:42:23.463Z,98889.25
2022-10-09T20:46:37.399Z,98888.22
2022-10-09T20:50:49.063Z,98887.34
2022-10-09T20:55:00.656Z,98889.75
2022-10-09T20:59:12.938Z,98880.13
2022-10-09T21:03:25.010Z,98887.06
2022-10-09T21:07:36.524Z,98891.41
2022-10-09T21:11:48.153Z,98888.44
2022-10-09T21:15:59.738Z,98889.38
2022-10-09T21:20:11.264Z,98882.84
2022-10-09T21:24:22.817Z,98890.28
2022-10-09T21:28:34.375Z,98889.59
